This is the latest recevied weather packets stored in our database for station/object SP6PGH-13. If no packets are shown the sender has not sent any weather packets the latest 10 day(s).
| Time | Temp. | Humidity | Pressure | Rain* | Wind** | Luminosity | Snow |
|---|---|---|---|---|---|---|---|
| 1788327441 | 13.33° C | 93% | 1006.7 hPa | - | - | 41 W/m² | - |
| 1788326540 | 13.33° C | 93% | 1006.5 hPa | - | - | 20 W/m² | - |
| 1788325638 | 13.33° C | 93% | 1006.5 hPa | - | - | 17 W/m² | - |
| 1788322936 | 13.33° C | 92% | 1006.1 hPa | - | - | 4 W/m² | - |
| 1788298607 | 13.33° C | 88% | 1005.9 hPa | - | - | - | - |
| 1788287794 | 16.11° C | 75% | 1005.6 hPa | - | - | - | - |
| 1788286893 | 16.67° C | 74% | 1005.5 hPa | - | - | - | - |
| 1788285993 | 16.67° C | 74% | 1005.4 hPa | - | - | - | - |
| 1788284190 | 17.22° C | 70% | 1005.2 hPa | - | - | 3 W/m² | - |
| 1788283289 | 18.89° C | 66% | 1004.8 hPa | - | - | 9 W/m² | - |
| 1788282388 | 20.56° C | 59% | 1004.8 hPa | - | - | 20 W/m² | - |
| 1788280586 | 21.11° C | 57% | 1004.7 hPa | - | - | 33 W/m² | - |
| 1788279684 | 21.11° C | 56% | 1004.6 hPa | - | - | 42 W/m² | - |
| 1788278783 | 21.11° C | 57% | 1004.6 hPa | - | - | 47 W/m² | - |
| 1788276981 | 22.78° C | 51% | 1004.5 hPa | - | - | 84 W/m² | - |
| 1788273376 | 23.33° C | 50% | 1004.6 hPa | - | - | 357 W/m² | - |
| 1788272476 | 23.33° C | 49% | 1004.5 hPa | - | - | 397 W/m² | - |
| 1788271575 | 22.22° C | 53% | 1004.7 hPa | - | - | 495 W/m² | - |
| 1788270673 | 23.33° C | 49% | 1004.6 hPa | - | - | 476 W/m² | - |
| 1788269773 | 22.22° C | 53% | 1004.8 hPa | - | - | 562 W/m² | - |
| 1788268871 | 21.67° C | 56% | 1004.7 hPa | - | - | 317 W/m² | - |
| 1788267970 | 21.67° C | 55% | 1004.7 hPa | - | - | 325 W/m² | - |
| 1788267069 | 22.22° C | 57% | 1004.8 hPa | - | - | 423 W/m² | - |
| 1788266168 | 21.67° C | 58% | 1004.9 hPa | - | - | 483 W/m² | - |
| 1788265267 | 21.11° C | 59% | 1005 hPa | - | - | 287 W/m² | - |
* Rain since midnight (hover to see other rain measurements)
** Current wind speed in m/s (hover to see current wind gust speed)